Terminal Aerodrome Forecast
Issued by NWS

Home | Current Version | Previous Version | Text Only | Print | Product List | Glossary On
Versions: 1 2 3 4 5 6 7 8 9 10 11 12 13 14 15 16 17 18 19 20 21 22 23 24 25 26 27 28 29 30 31 32 33 34 35 36 37 38
000
FTUS42 KRAH 270539
TAFINT
TAF
KINT 270539Z 2706/2806 17005KT P6SM OVC035
      TEMPO 2709/2713 -RA
     FM271300 33009KT P6SM SCT030 OVC060
      TEMPO 2716/2720 32010G20KT
     FM272200 31008KT P6SM FEW030=

USA.gov is the U.S. government's official web portal to all federal, state and local government web resources and services.